createdAt,value
2018-11-27T00:00:22.351Z,2.20
2018-11-27T00:02:50.672Z,2.30
2018-11-27T00:05:18.954Z,2.30
2018-11-27T00:07:47.246Z,2.30
2018-11-27T00:10:15.522Z,2.30
2018-11-27T00:12:43.786Z,2.30
2018-11-27T00:15:12.659Z,2.30
2018-11-27T00:17:40.914Z,2.30
2018-11-27T00:20:10.328Z,2.30
2018-11-27T00:22:38.877Z,2.30
2018-11-27T00:25:13.135Z,2.30
2018-11-27T00:27:41.415Z,2.30
2018-11-27T00:30:18.663Z,2.30
2018-11-27T00:32:46.967Z,2.20
2018-11-27T00:35:16.662Z,2.10
2018-11-27T00:37:44.946Z,2.10
2018-11-27T00:40:21.625Z,2.00
2018-11-27T00:42:50.174Z,2.00
2018-11-27T00:45:19.633Z,2.00
2018-11-27T00:47:48.811Z,2.00
2018-11-27T00:50:17.980Z,2.00
2018-11-27T00:52:46.277Z,2.00
2018-11-27T00:55:15.600Z,2.00
2018-11-27T00:57:44.798Z,2.00
2018-11-27T01:00:16.001Z,2.00
2018-11-27T01:02:44.357Z,2.00
2018-11-27T01:05:14.927Z,2.00
2018-11-27T01:07:43.239Z,2.00
2018-11-27T01:10:27.291Z,2.10
2018-11-27T01:12:55.560Z,2.10
2018-11-27T01:15:23.869Z,2.10
2018-11-27T01:17:57.075Z,2.10
2018-11-27T01:20:25.781Z,2.10
2018-11-27T01:22:54.063Z,2.10
2018-11-27T01:25:22.379Z,2.10
2018-11-27T01:27:50.667Z,2.10
2018-11-27T01:30:21.153Z,2.10
2018-11-27T01:32:49.972Z,2.10
2018-11-27T01:35:20.726Z,2.00
2018-11-27T01:37:50.075Z,2.10
2018-11-27T01:40:20.400Z,2.10
2018-11-27T01:42:49.699Z,2.10
2018-11-27T01:45:18.983Z,1.90
2018-11-27T01:47:47.322Z,1.90
2018-11-27T01:50:16.386Z,1.90
2018-11-27T01:52:44.734Z,1.90
2018-11-27T01:55:18.119Z,1.90
2018-11-27T01:57:46.435Z,1.90
2018-11-27T02:00:21.581Z,1.80
2018-11-27T02:02:50.071Z,1.90
2018-11-27T02:05:18.471Z,1.90
2018-11-27T02:07:46.762Z,1.90
2018-11-27T02:10:15.044Z,1.80
2018-11-27T02:12:44.499Z,1.80
2018-11-27T02:15:16.163Z,1.80
2018-11-27T02:17:44.423Z,1.80
2018-11-27T02:20:12.822Z,1.80
2018-11-27T02:22:41.264Z,1.90
2018-11-27T02:25:16.988Z,1.90
2018-11-27T02:27:45.301Z,1.90
2018-11-27T02:30:14.720Z,2.00
2018-11-27T02:32:43.095Z,2.00
2018-11-27T02:35:19.066Z,2.00
2018-11-27T02:37:48.393Z,2.00
2018-11-27T02:40:17.314Z,1.90
2018-11-27T02:42:45.652Z,2.00
2018-11-27T02:45:16.328Z,1.90
2018-11-27T02:47:45.143Z,1.80
2018-11-27T02:50:15.592Z,1.90
2018-11-27T02:52:43.867Z,1.90
2018-11-27T02:55:14.187Z,1.90
2018-11-27T02:57:42.528Z,1.90
2018-11-27T03:00:14.846Z,1.90
2018-11-27T03:02:43.227Z,2.00
2018-11-27T03:05:13.855Z,1.90
2018-11-27T03:07:42.173Z,2.00
2018-11-27T03:10:13.671Z,2.00
2018-11-27T03:12:41.990Z,2.00
2018-11-27T03:15:17.655Z,2.00
2018-11-27T03:17:45.938Z,2.00
2018-11-27T03:20:15.447Z,1.90
2018-11-27T03:22:43.761Z,2.00
2018-11-27T03:25:14.084Z,2.00
2018-11-27T03:27:42.508Z,1.90
2018-11-27T03:30:12.147Z,1.90
2018-11-27T03:32:40.441Z,2.00
2018-11-27T03:35:10.576Z,2.00
2018-11-27T03:37:38.862Z,2.00
2018-11-27T03:40:11.559Z,2.00
2018-11-27T03:42:39.923Z,2.00
2018-11-27T03:45:09.828Z,2.10
2018-11-27T03:47:38.152Z,2.10
2018-11-27T03:50:24.258Z,2.00
2018-11-27T03:52:52.529Z,2.00
2018-11-27T03:55:20.797Z,2.00
2018-11-27T03:57:49.246Z,1.90
2018-11-27T04:00:18.545Z,1.90
2018-11-27T04:02:48.294Z,1.80
2018-11-27T04:05:16.571Z,1.80
2018-11-27T04:07:44.887Z,1.70
2018-11-27T04:10:16.106Z,1.70
2018-11-27T04:12:44.401Z,1.70
2018-11-27T04:15:13.107Z,1.70
2018-11-27T04:17:41.571Z,1.70
2018-11-27T04:20:10.913Z,1.70
2018-11-27T04:22:39.459Z,1.80
2018-11-27T04:25:09.254Z,1.80
2018-11-27T04:27:37.519Z,1.80
2018-11-27T04:30:07.996Z,1.80
2018-11-27T04:32:36.280Z,1.80
2018-11-27T04:35:04.903Z,1.70
2018-11-27T04:37:33.152Z,1.80
2018-11-27T04:40:01.431Z,1.80
2018-11-27T04:42:29.710Z,1.70
2018-11-27T04:44:57.971Z,1.80
2018-11-27T04:47:26.255Z,1.80
2018-11-27T04:49:54.534Z,1.80
2018-11-27T04:52:22.799Z,1.80
2018-11-27T04:54:51.100Z,1.80
2018-11-27T04:57:19.359Z,1.80
2018-11-27T04:59:47.655Z,1.80
2018-11-27T05:02:15.919Z,1.70
2018-11-27T05:04:44.202Z,1.70
2018-11-27T05:07:12.539Z,1.60
2018-11-27T05:09:40.827Z,1.60
2018-11-27T05:12:09.095Z,1.70
2018-11-27T05:14:37.378Z,1.60
2018-11-27T05:17:05.966Z,1.70
2018-11-27T05:19:34.245Z,1.70
2018-11-27T05:22:02.520Z,1.70
2018-11-27T05:24:30.787Z,1.70
2018-11-27T05:26:59.071Z,1.70
2018-11-27T05:29:27.358Z,1.70
2018-11-27T05:31:55.657Z,1.70
2018-11-27T05:34:23.887Z,1.70
2018-11-27T05:36:52.171Z,1.80
2018-11-27T05:39:20.435Z,1.80
2018-11-27T05:41:48.715Z,1.80
2018-11-27T05:44:16.975Z,1.90
2018-11-27T05:46:45.257Z,1.90
2018-11-27T05:49:13.542Z,2.00
2018-11-27T05:51:41.826Z,1.90
2018-11-27T05:54:10.080Z,1.80
2018-11-27T05:56:38.358Z,1.70
2018-11-27T05:59:06.726Z,1.70
2018-11-27T06:01:35.028Z,1.80
2018-11-27T06:04:03.315Z,1.80
2018-11-27T06:06:31.607Z,1.80
2018-11-27T06:08:59.880Z,1.80
2018-11-27T06:11:28.162Z,1.90
2018-11-27T06:13:56.431Z,1.90
2018-11-27T06:16:24.704Z,1.90
2018-11-27T06:18:52.966Z,1.90
2018-11-27T06:21:21.239Z,1.80
2018-11-27T06:23:49.489Z,1.80
2018-11-27T06:26:17.767Z,1.80
2018-11-27T06:28:46.042Z,1.90
2018-11-27T06:31:14.311Z,1.90
2018-11-27T06:33:42.586Z,1.90
2018-11-27T06:36:10.858Z,1.80
2018-11-27T06:38:39.151Z,1.80
2018-11-27T06:41:07.452Z,1.90
2018-11-27T06:43:35.787Z,1.90
2018-11-27T06:46:04.084Z,1.90
2018-11-27T06:48:32.374Z,2.00
2018-11-27T06:51:00.662Z,2.00
2018-11-27T06:53:28.959Z,1.90
2018-11-27T06:55:57.214Z,1.90
2018-11-27T06:58:25.528Z,1.90
2018-11-27T07:00:53.784Z,1.90
2018-11-27T07:03:22.059Z,1.80
2018-11-27T07:05:50.327Z,1.80
2018-11-27T07:08:18.626Z,1.80
2018-11-27T07:10:46.923Z,1.80
2018-11-27T07:13:19.571Z,1.80
2018-11-27T07:15:48.602Z,1.80
2018-11-27T07:18:16.887Z,1.80
2018-11-27T07:20:45.180Z,1.90
2018-11-27T07:23:13.462Z,1.90
2018-11-27T07:25:41.743Z,1.90
2018-11-27T07:28:10.031Z,1.90
2018-11-27T07:30:39.926Z,1.90
2018-11-27T07:33:08.215Z,1.90
2018-11-27T07:35:36.870Z,1.90
2018-11-27T07:38:05.432Z,1.90
2018-11-27T07:40:33.755Z,1.90
2018-11-27T07:43:04.715Z,1.90
2018-11-27T07:45:33.037Z,1.90
2018-11-27T07:48:01.351Z,2.00
2018-11-27T07:50:29.680Z,2.10
2018-11-27T07:52:57.987Z,2.00
2018-11-27T07:55:26.311Z,2.10
2018-11-27T07:57:55.140Z,2.10
2018-11-27T08:00:25.191Z,2.20
2018-11-27T08:02:54.675Z,2.20
2018-11-27T08:05:27.363Z,2.20
2018-11-27T08:07:56.476Z,2.30
2018-11-27T08:10:27.057Z,2.30
2018-11-27T08:12:55.375Z,2.30
2018-11-27T08:15:25.863Z,2.30
2018-11-27T08:17:54.155Z,2.30
2018-11-27T08:20:23.760Z,2.30
2018-11-27T08:22:52.060Z,2.30
2018-11-27T08:25:20.366Z,2.30
2018-11-27T08:27:48.669Z,2.30
2018-11-27T08:30:19.149Z,2.40
2018-11-27T08:32:47.526Z,2.30
2018-11-27T08:35:21.595Z,2.30
2018-11-27T08:37:50.848Z,2.30
2018-11-27T08:40:21.186Z,2.30
2018-11-27T08:42:49.589Z,2.30
2018-11-27T08:45:18.842Z,2.30
2018-11-27T08:47:48.027Z,2.30
2018-11-27T08:50:17.463Z,2.20
2018-11-27T08:52:47.851Z,2.10
2018-11-27T08:55:20.599Z,2.10
2018-11-27T08:57:48.971Z,2.10
2018-11-27T09:00:20.127Z,2.10
2018-11-27T09:02:49.339Z,2.10
2018-11-27T09:05:17.699Z,2.10
2018-11-27T09:07:46.424Z,2.10
2018-11-27T09:10:19.665Z,2.20
2018-11-27T09:12:48.004Z,2.20
2018-11-27T09:15:17.383Z,2.30
2018-11-27T09:17:49.319Z,2.30
2018-11-27T09:20:17.646Z,2.30
2018-11-27T09:22:45.955Z,2.30
2018-11-27T09:25:14.407Z,2.40
2018-11-27T09:27:42.679Z,2.40
2018-11-27T09:30:13.538Z,2.40
2018-11-27T09:32:41.891Z,2.50
2018-11-27T09:35:10.532Z,2.40
2018-11-27T09:37:38.852Z,2.40
2018-11-27T09:40:10.743Z,2.50
2018-11-27T09:42:39.067Z,2.50
2018-11-27T09:45:10.163Z,2.50
2018-11-27T09:47:38.503Z,2.60
2018-11-27T09:50:10.000Z,2.50
2018-11-27T09:52:38.294Z,2.60
2018-11-27T09:55:11.066Z,2.60
2018-11-27T09:57:39.392Z,2.70
2018-11-27T10:00:15.317Z,2.60
2018-11-27T10:02:43.607Z,2.60
2018-11-27T10:05:12.877Z,2.60
2018-11-27T10:07:41.162Z,2.60
2018-11-27T10:10:11.426Z,2.60
2018-11-27T10:12:39.832Z,2.60
2018-11-27T10:15:13.837Z,2.60
2018-11-27T10:17:42.199Z,2.60
2018-11-27T10:20:12.991Z,2.60
2018-11-27T10:22:41.340Z,2.60
2018-11-27T10:25:10.647Z,2.70
2018-11-27T10:27:39.192Z,2.70
2018-11-27T10:30:11.483Z,2.70
2018-11-27T10:32:39.795Z,2.70
2018-11-27T10:35:10.404Z,2.60
2018-11-27T10:37:38.699Z,2.60
2018-11-27T10:40:08.414Z,2.60
2018-11-27T10:42:36.788Z,2.60
2018-11-27T10:45:06.306Z,2.60
2018-11-27T10:47:34.597Z,2.70
2018-11-27T10:50:02.903Z,2.70
2018-11-27T10:52:31.223Z,2.60
2018-11-27T10:54:59.511Z,2.70
2018-11-27T10:57:27.827Z,2.70
2018-11-27T10:59:56.114Z,2.70
2018-11-27T11:02:29.778Z,2.80
2018-11-27T11:04:58.064Z,2.80
2018-11-27T11:07:26.367Z,2.80
2018-11-27T11:09:54.643Z,2.80
2018-11-27T11:12:22.967Z,2.80
2018-11-27T11:14:51.293Z,2.80
2018-11-27T11:17:19.667Z,2.90
2018-11-27T11:19:47.963Z,2.90
2018-11-27T11:22:16.284Z,2.90
2018-11-27T11:24:44.581Z,2.90
2018-11-27T11:27:12.900Z,2.90
2018-11-27T11:29:41.211Z,2.90
2018-11-27T11:32:09.522Z,2.90
2018-11-27T11:34:37.798Z,2.90
2018-11-27T11:37:06.132Z,2.90
2018-11-27T11:39:34.416Z,3.00
2018-11-27T11:42:02.744Z,3.00
2018-11-27T11:44:31.036Z,3.00
2018-11-27T11:46:59.332Z,3.10
2018-11-27T11:49:27.612Z,3.10
2018-11-27T11:51:55.906Z,3.00
2018-11-27T11:54:24.187Z,2.90
2018-11-27T11:56:52.468Z,2.80
2018-11-27T11:59:20.763Z,2.90
2018-11-27T12:01:49.056Z,2.90
2018-11-27T12:04:17.343Z,2.80
2018-11-27T12:06:45.630Z,2.80
2018-11-27T12:09:13.925Z,2.80
2018-11-27T12:11:42.215Z,2.80
2018-11-27T12:14:10.530Z,2.70
2018-11-27T12:16:38.844Z,2.80
2018-11-27T12:19:07.170Z,2.80
2018-11-27T12:21:35.578Z,2.80
2018-11-27T12:24:03.885Z,2.90
2018-11-27T12:26:32.175Z,2.90
2018-11-27T12:29:00.462Z,3.00
2018-11-27T12:31:28.856Z,3.10
2018-11-27T12:33:57.187Z,3.10
2018-11-27T12:36:25.504Z,3.10
2018-11-27T12:38:53.795Z,3.10
2018-11-27T12:41:23.119Z,3.10
2018-11-27T12:43:51.411Z,3.10
2018-11-27T12:46:19.707Z,3.10
2018-11-27T12:48:48.011Z,3.00
2018-11-27T12:51:16.992Z,3.10
2018-11-27T12:53:44.670Z,3.10
2018-11-27T12:56:12.973Z,3.00
2018-11-27T12:58:41.271Z,3.00
2018-11-27T13:01:09.783Z,3.00
2018-11-27T13:03:37.944Z,3.10
2018-11-27T13:06:07.487Z,3.10
2018-11-27T13:08:35.774Z,3.10
2018-11-27T13:11:04.094Z,3.10
2018-11-27T13:13:32.380Z,3.10
2018-11-27T13:16:00.679Z,3.00
2018-11-27T13:18:28.996Z,2.90
2018-11-27T13:20:57.327Z,3.00
2018-11-27T13:23:25.627Z,3.00
2018-11-27T13:25:53.974Z,3.00
2018-11-27T13:28:22.336Z,3.00
2018-11-27T13:30:57.143Z,3.00
2018-11-27T13:33:33.255Z,3.10
2018-11-27T13:36:01.588Z,3.20
2018-11-27T13:38:29.891Z,3.20
2018-11-27T13:40:58.211Z,3.20
2018-11-27T13:43:28.474Z,3.30
2018-11-27T13:45:58.095Z,3.20
2018-11-27T13:48:26.403Z,3.20
2018-11-27T13:50:54.698Z,3.20
2018-11-27T13:53:22.982Z,3.30
2018-11-27T13:55:51.301Z,3.20
2018-11-27T13:58:19.602Z,3.10
2018-11-27T14:00:47.903Z,3.10
2018-11-27T14:03:16.237Z,3.00
2018-11-27T14:05:44.547Z,3.00
2018-11-27T14:08:12.918Z,2.90
2018-11-27T14:10:42.192Z,2.90
2018-11-27T14:13:10.486Z,2.90
2018-11-27T14:15:38.798Z,3.00
2018-11-27T14:18:07.553Z,3.10
2018-11-27T14:20:35.913Z,3.10
2018-11-27T14:23:04.473Z,3.20
2018-11-27T14:25:32.744Z,3.20
2018-11-27T14:28:01.085Z,3.20
2018-11-27T14:30:29.390Z,3.20
2018-11-27T14:32:57.706Z,3.30
2018-11-27T14:35:25.987Z,3.30
2018-11-27T14:37:54.988Z,3.30
2018-11-27T14:40:25.473Z,3.30
2018-11-27T14:42:53.775Z,3.20
2018-11-27T14:45:24.364Z,3.20
2018-11-27T14:47:53.762Z,3.20
2018-11-27T14:50:22.143Z,3.20
2018-11-27T14:52:50.436Z,3.10
2018-11-27T14:55:26.833Z,3.10
2018-11-27T14:57:55.202Z,3.10
2018-11-27T15:00:24.379Z,3.10
2018-11-27T15:02:52.732Z,3.00
2018-11-27T15:05:27.525Z,2.90
2018-11-27T15:07:55.815Z,2.80
2018-11-27T15:10:24.120Z,2.80
2018-11-27T15:12:52.419Z,2.80
2018-11-27T15:15:20.734Z,2.80
2018-11-27T15:17:49.039Z,2.80
2018-11-27T15:20:20.252Z,2.80
2018-11-27T15:22:48.587Z,2.70
2018-11-27T15:25:16.996Z,2.70
2018-11-27T15:27:45.363Z,2.70
2018-11-27T15:30:14.928Z,2.70
2018-11-27T15:32:43.272Z,2.80
2018-11-27T15:35:12.378Z,2.80
2018-11-27T15:37:40.679Z,2.70
2018-11-27T15:40:19.020Z,2.70
2018-11-27T15:42:47.365Z,2.70
2018-11-27T15:45:32.035Z,2.80
2018-11-27T15:48:00.336Z,2.80
2018-11-27T15:50:28.618Z,2.70
2018-11-27T15:52:57.024Z,2.70
2018-11-27T15:55:30.231Z,2.60
2018-11-27T15:57:59.992Z,2.60
2018-11-27T16:00:28.308Z,2.60
2018-11-27T16:02:56.619Z,2.70
2018-11-27T16:05:24.915Z,2.70
2018-11-27T16:07:53.217Z,2.60
2018-11-27T16:10:21.497Z,2.60
2018-11-27T16:12:49.784Z,2.60
2018-11-27T16:15:19.146Z,2.70
2018-11-27T16:17:48.176Z,2.80
2018-11-27T16:20:17.770Z,2.80
2018-11-27T16:22:47.081Z,2.80
2018-11-27T16:25:16.434Z,2.80
2018-11-27T16:27:44.815Z,2.80
2018-11-27T16:30:21.347Z,2.80
2018-11-27T16:32:49.639Z,2.70
2018-11-27T16:35:17.955Z,2.70
2018-11-27T16:37:47.691Z,2.60
2018-11-27T16:40:19.249Z,2.60
2018-11-27T16:42:47.532Z,2.50
2018-11-27T16:45:18.993Z,2.50
2018-11-27T16:47:47.367Z,2.50
2018-11-27T16:50:16.293Z,2.60
2018-11-27T16:52:44.775Z,2.60
2018-11-27T16:55:14.130Z,2.50
2018-11-27T16:57:42.435Z,2.60
2018-11-27T17:00:22.969Z,2.50
2018-11-27T17:02:52.375Z,2.60
2018-11-27T17:05:20.723Z,2.60
2018-11-27T17:07:49.070Z,2.70
2018-11-27T17:10:18.373Z,2.70
2018-11-27T17:12:47.524Z,2.60
2018-11-27T17:15:20.022Z,2.60
2018-11-27T17:17:48.346Z,2.60
2018-11-27T17:20:27.709Z,2.50
2018-11-27T17:22:57.404Z,2.50
2018-11-27T17:25:25.722Z,2.50
2018-11-27T17:27:54.608Z,2.50
2018-11-27T17:30:28.926Z,2.50
2018-11-27T17:32:57.623Z,2.40
2018-11-27T17:35:26.384Z,2.50
2018-11-27T17:37:54.772Z,2.50
2018-11-27T17:40:23.123Z,2.40
2018-11-27T17:42:51.431Z,2.40
2018-11-27T17:45:19.743Z,2.40
2018-11-27T17:47:48.092Z,2.40
2018-11-27T17:50:17.372Z,2.40
2018-11-27T17:52:45.672Z,2.40
2018-11-27T17:55:14.348Z,2.40
2018-11-27T17:57:42.676Z,2.40
2018-11-27T18:00:16.206Z,2.40
2018-11-27T18:02:46.227Z,2.40
2018-11-27T18:05:14.536Z,2.50
2018-11-27T18:07:42.850Z,2.50
2018-11-27T18:10:11.742Z,2.50
2018-11-27T18:12:40.022Z,2.50
2018-11-27T18:15:11.947Z,2.40
2018-11-27T18:17:40.290Z,2.40
2018-11-27T18:20:09.922Z,2.40
2018-11-27T18:22:38.229Z,2.40
2018-11-27T18:25:09.439Z,2.40
2018-11-27T18:27:37.862Z,2.50
2018-11-27T18:30:09.911Z,2.50
2018-11-27T18:32:38.263Z,2.50
2018-11-27T18:35:08.063Z,2.50
2018-11-27T18:37:36.552Z,2.50
2018-11-27T18:40:06.483Z,2.50
2018-11-27T18:42:34.780Z,2.60
2018-11-27T18:45:03.166Z,2.60
2018-11-27T18:47:31.474Z,2.60
2018-11-27T18:50:00.579Z,2.60
2018-11-27T18:52:28.967Z,2.60
2018-11-27T18:54:57.715Z,2.50
2018-11-27T18:57:25.587Z,2.60
2018-11-27T18:59:53.867Z,2.60
2018-11-27T19:02:22.158Z,2.60
2018-11-27T19:04:50.447Z,2.70
2018-11-27T19:07:18.767Z,2.70
2018-11-27T19:09:47.041Z,2.70
2018-11-27T19:12:15.375Z,2.80
2018-11-27T19:14:43.684Z,2.70
2018-11-27T19:17:11.998Z,2.80
2018-11-27T19:19:40.307Z,2.80
2018-11-27T19:22:08.592Z,2.80
2018-11-27T19:24:36.951Z,2.70
2018-11-27T19:27:05.375Z,2.80
2018-11-27T19:29:33.655Z,2.80
2018-11-27T19:32:01.967Z,2.80
2018-11-27T19:34:30.267Z,2.80
2018-11-27T19:36:58.559Z,2.80
2018-11-27T19:39:26.863Z,2.70
2018-11-27T19:41:55.139Z,2.70
2018-11-27T19:44:23.426Z,2.70
2018-11-27T19:46:51.695Z,2.80
2018-11-27T19:49:19.995Z,2.80
2018-11-27T19:51:48.282Z,2.80
2018-11-27T19:54:16.562Z,2.90
2018-11-27T19:56:44.831Z,2.90
2018-11-27T19:59:13.159Z,2.90
2018-11-27T20:01:41.444Z,2.90
2018-11-27T20:04:09.738Z,2.90
2018-11-27T20:06:38.024Z,2.80
2018-11-27T20:09:08.622Z,2.80
2018-11-27T20:11:37.004Z,2.70
2018-11-27T20:14:05.372Z,2.70
2018-11-27T20:16:33.671Z,2.70
2018-11-27T20:19:01.963Z,2.80
2018-11-27T20:21:30.242Z,2.80
2018-11-27T20:23:58.536Z,2.80
2018-11-27T20:26:26.830Z,2.80
2018-11-27T20:28:55.131Z,2.80
2018-11-27T20:31:23.399Z,2.80
2018-11-27T20:33:51.771Z,2.70
2018-11-27T20:36:20.083Z,2.70
2018-11-27T20:38:48.412Z,2.70
2018-11-27T20:41:16.798Z,2.60
2018-11-27T20:43:45.102Z,2.60
2018-11-27T20:46:13.383Z,2.60
2018-11-27T20:48:41.667Z,2.70
2018-11-27T20:51:10.035Z,2.70
2018-11-27T20:53:38.306Z,2.70
2018-11-27T20:56:07.271Z,2.70
2018-11-27T20:58:35.546Z,2.70
2018-11-27T21:01:03.891Z,2.80
2018-11-27T21:03:32.228Z,2.80
2018-11-27T21:06:00.492Z,2.70
2018-11-27T21:08:28.789Z,2.70
2018-11-27T21:10:57.123Z,2.80
2018-11-27T21:13:25.425Z,2.80
2018-11-27T21:15:54.856Z,2.80
2018-11-27T21:18:23.118Z,2.80
2018-11-27T21:20:51.416Z,2.70
2018-11-27T21:23:19.682Z,2.80
2018-11-27T21:25:48.236Z,2.80
2018-11-27T21:28:24.985Z,2.80
2018-11-27T21:30:53.747Z,2.80
2018-11-27T21:33:22.027Z,2.70
2018-11-27T21:35:50.545Z,2.80
2018-11-27T21:38:19.743Z,2.90
2018-11-27T21:40:48.030Z,2.90
2018-11-27T21:43:23.167Z,2.90
2018-11-27T21:45:51.482Z,2.90
2018-11-27T21:48:19.869Z,2.90
2018-11-27T21:50:48.147Z,2.90
2018-11-27T21:53:16.430Z,2.90
2018-11-27T21:55:44.910Z,2.90
2018-11-27T21:58:13.724Z,3.00
2018-11-27T22:00:44.263Z,3.00
2018-11-27T22:03:15.835Z,3.00
2018-11-27T22:05:45.263Z,3.00
2018-11-27T22:08:13.542Z,2.90
2018-11-27T22:10:41.820Z,3.00
2018-11-27T22:13:12.630Z,3.00
2018-11-27T22:15:42.610Z,2.90
2018-11-27T22:18:11.813Z,2.80
2018-11-27T22:20:40.164Z,2.80
2018-11-27T22:23:08.962Z,2.80
2018-11-27T22:25:37.246Z,2.70
2018-11-27T22:28:06.726Z,2.70
2018-11-27T22:30:35.038Z,2.80
2018-11-27T22:33:03.663Z,2.70
2018-11-27T22:35:31.930Z,2.70
2018-11-27T22:38:00.202Z,2.70
2018-11-27T22:40:28.487Z,2.70
2018-11-27T22:42:56.767Z,2.80
2018-11-27T22:45:27.397Z,2.80
2018-11-27T22:47:55.661Z,2.80
2018-11-27T22:50:23.944Z,2.90
2018-11-27T22:52:52.221Z,2.90
2018-11-27T22:55:20.556Z,2.80
2018-11-27T22:57:48.816Z,2.80
2018-11-27T23:00:26.941Z,2.80
2018-11-27T23:02:55.247Z,2.80
2018-11-27T23:05:23.680Z,2.80
2018-11-27T23:07:53.216Z,2.70
2018-11-27T23:10:21.486Z,2.70
2018-11-27T23:12:49.815Z,2.70
2018-11-27T23:15:19.639Z,2.70
2018-11-27T23:17:47.900Z,2.70
2018-11-27T23:20:17.207Z,2.70
2018-11-27T23:22:45.571Z,2.70
2018-11-27T23:25:14.868Z,2.80
2018-11-27T23:27:43.185Z,2.70
2018-11-27T23:30:15.719Z,2.70
2018-11-27T23:32:44.018Z,2.70
2018-11-27T23:35:12.406Z,2.80
2018-11-27T23:37:40.735Z,2.80
2018-11-27T23:40:10.158Z,2.80
2018-11-27T23:42:38.791Z,2.80
2018-11-27T23:45:08.968Z,2.80
2018-11-27T23:47:37.399Z,2.80
2018-11-27T23:50:07.167Z,2.70
2018-11-27T23:52:35.472Z,2.60
2018-11-27T23:55:03.804Z,2.60
2018-11-27T23:57:32.087Z,2.60
